createdAt,value
2022-08-11T00:03:55.558Z,22.43
2022-08-11T00:09:27.182Z,22.41
2022-08-11T00:15:03.235Z,22.34
2022-08-11T00:20:35.010Z,22.26
2022-08-11T00:26:06.702Z,22.19
2022-08-11T00:31:38.437Z,22.26
2022-08-11T00:37:10.127Z,22.22
2022-08-11T00:42:41.842Z,22.2
2022-08-11T00:48:13.568Z,22.14
2022-08-11T00:53:45.295Z,22.05
2022-08-11T00:59:26.501Z,21.79
2022-08-11T01:04:52.367Z,21.88
2022-08-11T01:10:20.558Z,21.97
2022-08-11T01:15:57.073Z,21.82
2022-08-11T01:21:28.334Z,22.09
2022-08-11T01:27:00.058Z,21.92
2022-08-11T01:32:31.762Z,21.89
2022-08-11T01:38:03.479Z,21.92
2022-08-11T01:43:35.244Z,21.97
2022-08-11T01:49:29.211Z,22.07
2022-08-11T01:50:10.400Z,22.07
2022-08-11T01:54:38.622Z,21.87
2022-08-11T02:00:10.392Z,22.0
2022-08-11T02:05:42.133Z,21.95
2022-08-11T02:11:13.968Z,21.53
2022-08-11T02:16:49.936Z,21.61
2022-08-11T02:22:21.683Z,21.57
2022-08-11T02:27:53.404Z,21.44
2022-08-11T02:33:25.180Z,21.39
2022-08-11T02:38:56.825Z,21.44
2022-08-11T02:44:28.538Z,21.38
2022-08-11T02:50:07.075Z,21.13
2022-08-11T02:55:46.922Z,21.01
2022-08-11T03:01:03.731Z,20.97
2022-08-11T03:06:35.426Z,20.88
2022-08-11T03:12:07.174Z,20.73
2022-08-11T03:17:45.246Z,20.47
2022-08-11T03:23:19.295Z,20.39
2022-08-11T03:28:48.773Z,20.12
2022-08-11T03:34:20.425Z,19.86
2022-08-11T03:39:56.148Z,19.84
2022-08-11T03:45:23.873Z,19.7
2022-08-11T03:50:55.807Z,19.53
2022-08-11T03:56:27.349Z,19.59
2022-08-11T04:01:59.117Z,19.47
2022-08-11T04:07:30.809Z,19.3
2022-08-11T04:13:02.564Z,19.1
2022-08-11T04:18:38.645Z,19.09
2022-08-11T04:24:13.636Z,19.01
2022-08-11T04:30:01.928Z,18.97
2022-08-11T04:35:13.793Z,18.91
2022-08-11T04:40:45.552Z,18.89
2022-08-11T04:46:17.270Z,18.94
2022-08-11T04:51:48.925Z,18.99
2022-08-11T04:57:20.642Z,18.97
2022-08-11T05:02:52.398Z,18.94
2022-08-11T05:08:24.409Z,19.05
2022-08-11T05:13:55.871Z,19.28
2022-08-11T05:19:31.994Z,19.31
2022-08-11T05:25:03.673Z,19.44
2022-08-11T05:30:35.438Z,19.59
2022-08-11T05:36:07.218Z,19.71
2022-08-11T05:41:38.877Z,19.86
2022-08-11T05:47:10.751Z,20.03
2022-08-11T05:52:42.418Z,20.16
2022-08-11T05:58:14.164Z,20.52
2022-08-11T06:03:56.616Z,20.72
2022-08-11T06:09:17.520Z,20.92
2022-08-11T06:14:49.294Z,21.17
2022-08-11T06:20:25.335Z,21.08
2022-08-11T06:25:57.078Z,21.76
2022-08-11T06:31:28.777Z,21.76
2022-08-11T06:37:00.478Z,22.02
2022-08-11T06:42:32.128Z,22.52
2022-08-11T06:48:03.957Z,22.52
2022-08-11T06:53:35.690Z,22.79
2022-08-11T06:59:07.403Z,23.16
2022-08-11T07:04:39.198Z,23.51
2022-08-11T07:10:10.957Z,23.57
2022-08-11T07:15:47.319Z,24.02
2022-08-11T07:21:42.967Z,23.78
2022-08-11T07:26:50.307Z,24.47
2022-08-11T07:32:22.053Z,24.72
2022-08-11T07:38:01.487Z,24.59
2022-08-11T07:43:25.513Z,25.0
2022-08-11T07:48:57.323Z,25.37
2022-08-11T07:54:29.057Z,25.55
2022-08-11T08:00:04.418Z,25.88
2022-08-11T08:05:32.479Z,26.16
2022-08-11T08:11:04.186Z,26.24
2022-08-11T08:16:35.921Z,26.6
2022-08-11T08:22:38.574Z,26.69
2022-08-11T08:27:43.747Z,27.19
2022-08-11T08:33:15.482Z,27.43
2022-08-11T08:38:47.283Z,27.62
2022-08-11T08:44:37.608Z,27.91
2022-08-11T08:49:50.628Z,27.91
2022-08-11T08:55:22.323Z,27.91
2022-08-11T09:00:54.102Z,27.94
2022-08-11T09:06:25.814Z,27.8
2022-08-11T09:11:57.567Z,28.08
2022-08-11T09:17:29.293Z,28.33
2022-08-11T09:28:37.095Z,28.58
2022-08-11T09:34:08.798Z,28.8
2022-08-11T09:39:40.499Z,28.88
2022-08-11T09:45:12.198Z,28.92
2022-08-11T09:50:44.046Z,28.85
2022-08-11T09:56:15.946Z,29.0
2022-08-11T10:01:47.561Z,29.16
2022-08-11T10:07:19.227Z,29.52
2022-08-11T10:12:50.981Z,29.7
2022-08-11T10:18:22.714Z,29.58
2022-08-11T10:24:00.734Z,29.45
2022-08-11T10:29:32.203Z,30.1
2022-08-11T10:35:02.294Z,30.52
2022-08-11T10:40:34.084Z,30.44
2022-08-11T10:46:05.702Z,30.56
2022-08-11T10:51:50.344Z,30.46
2022-08-11T10:57:10.039Z,30.46
2022-08-11T11:02:41.794Z,30.93
2022-08-11T11:08:13.570Z,31.24
2022-08-11T11:13:53.162Z,30.85
2022-08-11T11:19:17.045Z,30.94
2022-08-11T11:24:53.014Z,30.94
2022-08-11T11:30:24.869Z,30.69
2022-08-11T11:35:56.525Z,30.88
2022-08-11T11:41:28.289Z,30.92
2022-08-11T11:47:00.009Z,31.47
2022-08-11T11:52:31.731Z,30.98
2022-08-11T11:58:03.760Z,31.3
2022-08-11T12:03:35.327Z,31.27
2022-08-11T12:09:06.956Z,31.15
2022-08-11T12:14:38.610Z,31.58
2022-08-11T12:20:10.292Z,31.82
2022-08-11T12:25:46.538Z,31.82
2022-08-11T12:31:18.177Z,31.54
2022-08-11T12:36:49.918Z,31.64
2022-08-11T12:42:21.628Z,31.91
2022-08-11T12:48:07.890Z,31.85
2022-08-11T12:49:00.068Z,31.85
2022-08-11T12:53:25.065Z,31.64
2022-08-11T12:58:56.767Z,31.89
2022-08-11T13:04:29.307Z,32.04
2022-08-11T13:10:01.175Z,32.12
2022-08-11T13:15:32.882Z,32.13
2022-08-11T13:21:04.606Z,31.86
2022-08-11T13:26:47.652Z,31.82
2022-08-11T13:32:14.539Z,32.45
2022-08-11T13:38:18.248Z,32.39
2022-08-11T13:43:17.987Z,32.27
2022-08-11T13:48:49.723Z,32.62
2022-08-11T13:54:21.543Z,32.55
2022-08-11T13:59:53.479Z,32.16
2022-08-11T14:05:24.981Z,31.91
2022-08-11T14:10:56.672Z,32.03
2022-08-11T14:16:28.518Z,32.0
2022-08-11T14:22:03.741Z,32.0
2022-08-11T14:27:46.066Z,31.94
2022-08-11T14:33:16.441Z,32.35
2022-08-11T14:38:39.813Z,32.09
2022-08-11T14:44:13.514Z,32.13
2022-08-11T14:49:50.888Z,32.27
2022-08-11T14:55:14.939Z,32.58
2022-08-11T15:00:46.678Z,32.38
2022-08-11T15:06:18.362Z,32.07
2022-08-11T15:11:50.318Z,32.14
2022-08-11T15:17:21.882Z,31.7
2022-08-11T15:22:53.966Z,31.9
2022-08-11T15:28:30.166Z,31.75
2022-08-11T15:34:01.874Z,31.96
2022-08-11T15:39:33.617Z,31.8
2022-08-11T15:45:05.454Z,31.97
2022-08-11T15:50:36.975Z,32.12
2022-08-11T15:56:08.837Z,31.92
2022-08-11T16:01:40.546Z,31.78
2022-08-11T16:07:12.822Z,31.96
2022-08-11T16:12:44.393Z,31.6
2022-08-11T16:18:15.749Z,31.55
2022-08-11T16:23:47.480Z,31.45
2022-08-11T16:29:23.613Z,31.59
2022-08-11T16:34:55.253Z,31.33
2022-08-11T16:40:26.970Z,31.02
2022-08-11T16:45:58.705Z,31.05
2022-08-11T16:51:30.509Z,31.21
2022-08-11T16:57:02.092Z,31.15
2022-08-11T17:02:33.907Z,31.03
2022-08-11T17:08:05.588Z,30.99
2022-08-11T17:13:37.303Z,30.87
2022-08-11T17:19:09.037Z,30.68
2022-08-11T17:24:40.765Z,30.53
2022-08-11T17:30:16.877Z,30.44
2022-08-11T17:35:48.614Z,30.55
2022-08-11T17:41:23.133Z,30.17
2022-08-11T17:46:52.058Z,30.35
2022-08-11T17:52:23.749Z,30.33
2022-08-11T17:57:55.465Z,30.11
2022-08-11T18:03:27.214Z,30.16
2022-08-11T18:08:58.990Z,30.16
2022-08-11T18:14:30.632Z,29.98
2022-08-11T18:20:02.330Z,29.86
2022-08-11T18:25:34.122Z,29.42
2022-08-11T18:31:13.118Z,29.3
2022-08-11T18:36:43.958Z,28.88
2022-08-11T18:42:19.532Z,28.54
2022-08-11T18:47:47.434Z,28.37
2022-08-11T18:53:19.097Z,27.96
2022-08-11T18:58:50.854Z,27.61
2022-08-11T19:04:22.682Z,27.61
2022-08-11T19:09:54.551Z,27.53
2022-08-11T19:15:26.382Z,27.48
2022-08-11T19:20:57.752Z,27.05
2022-08-11T19:26:29.482Z,26.99
2022-08-11T19:32:05.603Z,26.64
2022-08-11T19:37:44.183Z,26.58
2022-08-11T19:43:11.118Z,26.41
2022-08-11T19:48:40.735Z,26.26
2022-08-11T19:54:12.446Z,26.15
2022-08-11T19:59:44.172Z,26.11
2022-08-11T20:05:15.855Z,25.97
2022-08-11T20:10:47.630Z,25.9
2022-08-11T20:16:19.359Z,25.87
2022-08-11T20:21:51.068Z,25.8
2022-08-11T20:27:24.386Z,25.71
2022-08-11T20:32:58.903Z,25.54
2022-08-11T20:38:30.576Z,25.44
2022-08-11T20:44:07.273Z,25.32
2022-08-11T20:49:42.306Z,25.24
2022-08-11T20:50:34.424Z,25.24
2022-08-11T20:55:05.831Z,25.25
2022-08-11T21:00:39.054Z,25.1
2022-08-11T21:06:11.169Z,25.18
2022-08-11T21:11:41.022Z,25.09
2022-08-11T21:17:27.277Z,24.88
2022-08-11T21:22:58.767Z,24.92
2022-08-11T21:28:18.985Z,24.73
2022-08-11T21:33:55.055Z,24.76
2022-08-11T21:39:26.957Z,24.92
2022-08-11T21:44:58.538Z,24.97
2022-08-11T21:50:30.180Z,24.98
2022-08-11T21:56:02.063Z,24.8
2022-08-11T22:01:34.415Z,24.81
2022-08-11T22:07:05.498Z,24.82
2022-08-11T22:12:39.831Z,24.59
2022-08-11T22:18:08.889Z,24.71
2022-08-11T22:23:40.618Z,24.61
2022-08-11T22:29:12.371Z,24.74
2022-08-11T22:34:53.219Z,24.76
2022-08-11T22:40:20.179Z,24.86
2022-08-11T22:45:51.926Z,24.91
2022-08-11T22:51:23.662Z,24.74
2022-08-11T22:56:55.317Z,24.66
2022-08-11T23:02:27.061Z,24.66
2022-08-11T23:07:58.830Z,24.7
2022-08-11T23:13:30.559Z,24.43
2022-08-11T23:19:02.218Z,24.27
2022-08-11T23:24:34.020Z,24.09
2022-08-11T23:30:05.730Z,24.0
2022-08-11T23:35:52.827Z,23.82
2022-08-11T23:41:15.523Z,23.77
2022-08-11T23:46:47.278Z,23.66
2022-08-11T23:52:18.994Z,23.44
2022-08-11T23:57:50.667Z,23.32
